Time;durP1;ratioP1;P1;durP2;ratioP2;P2;SDS_P1;SDS_P2;PMS_P1;PMS_P2;Temp;Humidity;BMP_temperature;BMP_pressure;BME280_temperature;BME280_humidity;BME280_pressure;Samples;Min_cycle;Max_cycle;Signal;HPM_P1;HPM_P2
2022/11/01 00:01:07;;;;;;;27.35;13.57;;;;;;;;;;4984816;28;20029;-69
2022/11/01 00:03:32;;;;;;;27.27;12.55;;;;;;;;;;5002420;28;20547;-70
2022/11/01 00:05:58;;;;;;;25.70;11.13;;;;;;;;;;5002048;28;20720;-67
2022/11/01 00:08:24;;;;;;;23.20;11.63;;;;;;;;;;5000119;28;20140;-69
2022/11/01 00:10:49;;;;;;;30.67;16.95;;;;;;;;;;4993696;28;20091;-69
2022/11/01 00:13:17;;;;;;;40.67;20.65;;;;;;;;;;5002309;28;20820;-68
2022/11/01 00:15:42;;;;;;;29.40;15.27;;;;;;;;;;4999029;28;20136;-68
2022/11/01 00:18:07;;;;;;;25.50;12.68;;;;;;;;;;4999392;28;20068;-68
2022/11/01 00:20:33;;;;;;;23.80;12.25;;;;;;;;;;4995126;28;20048;-68
2022/11/01 00:22:58;;;;;;;26.25;11.27;;;;;;;;;;5002341;28;20041;-70
2022/11/01 00:25:25;;;;;;;23.02;11.20;;;;;;;;;;4997688;28;20700;-68
2022/11/01 00:27:51;;;;;;;23.38;11.25;;;;;;;;;;4984352;28;20110;-68
2022/11/01 00:30:19;;;;;;;24.42;11.27;;;;;;;;;;5000994;28;20115;-68
2022/11/01 00:32:45;;;;;;;28.17;14.18;;;;;;;;;;5000436;28;20029;-68
2022/11/01 00:35:10;;;;;;;35.40;17.20;;;;;;;;;;4998651;28;20068;-67
2022/11/01 00:37:35;;;;;;;24.98;14.00;;;;;;;;;;4999874;28;20041;-69
2022/11/01 00:40:01;;;;;;;28.63;12.68;;;;;;;;;;4998155;28;20044;-68
2022/11/01 00:42:26;;;;;;;24.58;10.65;;;;;;;;;;4999885;28;20037;-69
2022/11/01 00:44:51;;;;;;;23.23;10.93;;;;;;;;;;4998941;28;20152;-69
2022/11/01 00:47:21;;;;;;;22.30;10.18;;;;;;;;;;5000711;28;20914;-70
2022/11/01 00:49:49;;;;;;;24.42;13.18;;;;;;;;;;5000098;28;20045;-68
2022/11/01 00:52:15;;;;;;;97.35;45.03;;;;;;;;;;4997542;28;20041;-68
2022/11/01 00:54:42;;;;;;;126.53;57.38;;;;;;;;;;4998619;28;20062;-68
2022/11/01 00:57:08;;;;;;;67.97;30.33;;;;;;;;;;4997305;28;20041;-69
2022/11/01 00:59:33;;;;;;;37.53;16.55;;;;;;;;;;5003749;28;20422;-70
2022/11/01 01:01:58;;;;;;;31.20;14.88;;;;;;;;;;5007448;28;20030;-70
2022/11/01 01:04:26;;;;;;;18.20;11.15;;;;;;;;;;4994954;28;20033;-66
2022/11/01 01:06:51;;;;;;;22.98;10.82;;;;;;;;;;5019828;28;20030;-69
2022/11/01 01:09:16;;;;;;;22.10;10.50;;;;;;;;;;5005387;28;20044;-66
2022/11/01 01:11:44;;;;;;;18.52;10.13;;;;;;;;;;5005232;28;20040;-70
2022/11/01 01:14:10;;;;;;;21.10;10.80;;;;;;;;;;5004639;28;20025;-68
2022/11/01 01:16:37;;;;;;;17.23;9.30;;;;;;;;;;5004984;28;20033;-68
2022/11/01 01:19:05;;;;;;;25.10;11.63;;;;;;;;;;5004355;28;20080;-68
2022/11/01 01:21:30;;;;;;;23.10;13.15;;;;;;;;;;5004976;28;20657;-69
2022/11/01 01:23:55;;;;;;;22.00;12.05;;;;;;;;;;5003859;28;20040;-68
2022/11/01 01:26:21;;;;;;;22.13;11.52;;;;;;;;;;5004975;28;20773;-69
2022/11/01 01:28:46;;;;;;;20.67;10.23;;;;;;;;;;5004616;28;20064;-67
2022/11/01 01:31:12;;;;;;;23.50;10.25;;;;;;;;;;5004970;28;20765;-69
2022/11/01 01:33:37;;;;;;;20.55;11.40;;;;;;;;;;5004533;28;20103;-70
2022/11/01 01:36:03;;;;;;;25.05;13.07;;;;;;;;;;5004726;28;20037;-69
2022/11/01 01:38:34;;;;;;;24.00;12.88;;;;;;;;;;5004702;28;20052;-69
2022/11/01 01:43:49;;;;;;;24.02;11.27;;;;;;;;;;5004554;28;20040;-68
2022/11/01 01:46:14;;;;;;;24.13;10.80;;;;;;;;;;5004670;28;20045;-70
2022/11/01 01:48:41;;;;;;;18.23;10.20;;;;;;;;;;5007074;28;20063;-67
2022/11/01 01:51:09;;;;;;;20.35;10.45;;;;;;;;;;5006184;28;20033;-72
2022/11/01 01:53:40;;;;;;;23.02;10.77;;;;;;;;;;5004545;28;20054;-69
2022/11/01 01:56:13;;;;;;;20.55;10.10;;;;;;;;;;5003609;28;20222;-70
2022/11/01 01:58:41;;;;;;;21.05;10.55;;;;;;;;;;5001414;28;20083;-67
2022/11/01 02:01:07;;;;;;;25.08;10.57;;;;;;;;;;5003723;28;20044;-69
2022/11/01 02:03:33;;;;;;;21.75;10.27;;;;;;;;;;5004586;28;20508;-69
2022/11/01 02:06:01;;;;;;;18.77;9.80;;;;;;;;;;5002346;28;20037;-69
2022/11/01 02:08:27;;;;;;;19.98;9.65;;;;;;;;;;5004468;28;20037;-69
2022/11/01 02:10:54;;;;;;;19.73;9.32;;;;;;;;;;5000567;28;20849;-68
2022/11/01 02:13:19;;;;;;;19.52;8.82;;;;;;;;;;5015066;28;20037;-70
2022/11/01 02:15:56;;;;;;;18.70;9.98;;;;;;;;;;5002656;28;20040;-69
2022/11/01 02:18:24;;;;;;;32.70;13.23;;;;;;;;;;5000208;28;20045;-68
2022/11/01 02:21:21;;;;;;;33.67;13.48;;;;;;;;;;4999411;28;20045;-68
2022/11/01 02:23:46;;;;;;;34.35;15.60;;;;;;;;;;5000444;28;20822;-71
2022/11/01 02:26:18;;;;;;;33.95;16.75;;;;;;;;;;5000333;28;20044;-69
2022/11/01 02:28:52;;;;;;;32.30;16.42;;;;;;;;;;5001209;28;20033;-70
2022/11/01 02:31:24;;;;;;;21.92;11.05;;;;;;;;;;5000265;28;20122;-70
2022/11/01 02:34:00;;;;;;;19.33;10.73;;;;;;;;;;4998047;28;20033;-70
2022/11/01 02:36:30;;;;;;;18.80;10.57;;;;;;;;;;5001570;28;20036;-68
2022/11/01 02:39:01;;;;;;;21.92;11.55;;;;;;;;;;5000420;28;20069;-68
2022/11/01 02:41:37;;;;;;;18.40;9.73;;;;;;;;;;5000351;28;20037;-69
2022/11/01 02:44:05;;;;;;;20.67;10.82;;;;;;;;;;5002340;28;20061;-67
2022/11/01 02:49:23;;;;;;;20.00;10.27;;;;;;;;;;5000759;28;20033;-69
2022/11/01 02:51:49;;;;;;;18.70;10.75;;;;;;;;;;5002177;28;20047;-68
2022/11/01 02:54:35;;;;;;;16.95;9.73;;;;;;;;;;5000735;28;20044;-69
2022/11/01 02:57:15;;;;;;;16.27;9.20;;;;;;;;;;4995824;28;20986;-69
2022/11/01 02:59:47;;;;;;;15.35;7.65;;;;;;;;;;4997353;28;20855;-69
2022/11/01 03:02:18;;;;;;;13.90;6.55;;;;;;;;;;4998067;28;20674;-68
2022/11/01 03:04:43;;;;;;;13.20;5.97;;;;;;;;;;4999007;28;20832;-70
2022/11/01 03:07:10;;;;;;;12.57;4.15;;;;;;;;;;5004874;28;20044;-68
2022/11/01 03:09:39;;;;;;;15.02;4.68;;;;;;;;;;5000149;28;20634;-69
2022/11/01 03:12:34;;;;;;;13.70;4.53;;;;;;;;;;4998494;28;20512;-72
2022/11/01 03:15:19;;;;;;;14.70;4.70;;;;;;;;;;4988479;28;20036;-73
2022/11/01 03:18:07;;;;;;;14.27;3.85;;;;;;;;;;4997319;28;20044;-70
2022/11/01 03:20:46;;;;;;;16.08;4.20;;;;;;;;;;4998023;28;20839;-69
2022/11/01 03:23:12;;;;;;;12.50;3.88;;;;;;;;;;4998066;28;20094;-70
2022/11/01 03:25:43;;;;;;;21.48;5.57;;;;;;;;;;4996202;28;20075;-70
2022/11/01 03:28:08;;;;;;;14.27;3.50;;;;;;;;;;5000060;28;20037;-71
2022/11/01 03:30:34;;;;;;;11.73;2.80;;;;;;;;;;4997854;28;20033;-72
2022/11/01 03:32:59;;;;;;;14.63;2.88;;;;;;;;;;4994092;28;20182;-72
2022/11/01 03:35:26;;;;;;;19.25;6.10;;;;;;;;;;5009880;28;20033;-70
2022/11/01 03:37:53;;;;;;;14.93;5.38;;;;;;;;;;4997816;28;20041;-72
2022/11/01 03:40:18;;;;;;;15.98;5.30;;;;;;;;;;4996867;28;21124;-70
2022/11/01 03:42:45;;;;;;;14.43;3.50;;;;;;;;;;4998080;28;20037;-70
2022/11/01 03:45:11;;;;;;;21.88;4.50;;;;;;;;;;4997591;28;20734;-75
2022/11/01 03:47:37;;;;;;;22.67;4.30;;;;;;;;;;4997714;28;20041;-74
2022/11/01 03:50:11;;;;;;;19.90;3.70;;;;;;;;;;4997498;28;20032;-74
2022/11/01 03:52:36;;;;;;;20.58;3.53;;;;;;;;;;5001508;28;20044;-72
2022/11/01 03:55:16;;;;;;;25.92;4.70;;;;;;;;;;4998276;28;21110;-68
2022/11/01 03:57:42;;;;;;;21.83;4.60;;;;;;;;;;4997608;28;20044;-69
2022/11/01 04:00:08;;;;;;;28.05;4.35;;;;;;;;;;4999328;28;20114;-70
2022/11/01 04:02:33;;;;;;;33.55;5.05;;;;;;;;;;4995862;28;20033;-73
2022/11/01 04:04:58;;;;;;;27.48;4.30;;;;;;;;;;5000683;28;20040;-73
2022/11/01 04:07:24;;;;;;;25.33;3.90;;;;;;;;;;4999303;28;20064;-71
2022/11/01 04:09:49;;;;;;;21.50;3.30;;;;;;;;;;5001230;28;20163;-70
2022/11/01 04:12:14;;;;;;;17.92;3.88;;;;;;;;;;4974962;28;20040;-73
2022/11/01 04:22:52;;;;;;;19.20;3.28;;;;;;;;;;4999354;28;20051;-70
2022/11/01 04:25:17;;;;;;;18.98;3.38;;;;;;;;;;4996922;28;20040;-72
2022/11/01 04:27:42;;;;;;;24.33;4.05;;;;;;;;;;4998201;28;20044;-70
2022/11/01 04:30:10;;;;;;;16.33;3.20;;;;;;;;;;4998878;28;20044;-72
2022/11/01 04:32:36;;;;;;;17.08;3.35;;;;;;;;;;4997203;28;21003;-72
2022/11/01 04:35:01;;;;;;;19.58;4.47;;;;;;;;;;4998706;28;20039;-71
2022/11/01 04:37:26;;;;;;;24.08;4.05;;;;;;;;;;4996480;28;20052;-71
2022/11/01 04:39:54;;;;;;;22.63;3.70;;;;;;;;;;4989591;28;20499;-72
2022/11/01 04:42:20;;;;;;;22.70;4.15;;;;;;;;;;4996509;28;20126;-72
2022/11/01 04:44:46;;;;;;;24.10;5.00;;;;;;;;;;4997463;28;20830;-72
2022/11/01 04:47:12;;;;;;;24.30;4.80;;;;;;;;;;4996950;28;20036;-70
2022/11/01 04:49:40;;;;;;;21.30;4.15;;;;;;;;;;4998997;28;20121;-71
2022/11/01 04:52:05;;;;;;;20.85;3.80;;;;;;;;;;4999341;28;21216;-72
2022/11/01 04:54:32;;;;;;;21.20;4.10;;;;;;;;;;5012383;28;20025;-70
2022/11/01 04:56:57;;;;;;;32.80;5.43;;;;;;;;;;4998273;28;20041;-72
2022/11/01 04:59:23;;;;;;;29.15;5.70;;;;;;;;;;4997182;28;20084;-71
2022/11/01 05:01:48;;;;;;;25.23;4.93;;;;;;;;;;4979472;28;20089;-73
2022/11/01 05:04:13;;;;;;;26.77;4.78;;;;;;;;;;5002383;28;20222;-70
2022/11/01 05:06:39;;;;;;;25.70;5.10;;;;;;;;;;4998895;28;20032;-69
2022/11/01 05:09:04;;;;;;;26.20;5.13;;;;;;;;;;5012152;28;20036;-71
2022/11/01 05:11:30;;;;;;;23.38;4.90;;;;;;;;;;4995681;28;20159;-70
2022/11/01 05:13:55;;;;;;;20.83;4.35;;;;;;;;;;5000856;28;20067;-71
2022/11/01 05:16:21;;;;;;;28.42;4.95;;;;;;;;;;4994768;28;20029;-70
2022/11/01 05:18:46;;;;;;;31.80;6.07;;;;;;;;;;4994542;28;20125;-69
2022/11/01 05:21:12;;;;;;;21.95;4.47;;;;;;;;;;4994473;28;20984;-69
2022/11/01 05:23:37;;;;;;;27.60;4.72;;;;;;;;;;5013315;28;20037;-70
2022/11/01 05:26:03;;;;;;;23.30;4.80;;;;;;;;;;4991811;28;20873;-70
2022/11/01 05:28:28;;;;;;;26.45;4.80;;;;;;;;;;5001321;28;20037;-73
2022/11/01 05:30:53;;;;;;;21.52;3.78;;;;;;;;;;5007670;28;20680;-71
2022/11/01 05:33:19;;;;;;;17.67;3.47;;;;;;;;;;4989673;28;20218;-73
2022/11/01 05:35:50;;;;;;;23.23;4.43;;;;;;;;;;4998485;28;20044;-74
2022/11/01 05:38:16;;;;;;;20.88;4.05;;;;;;;;;;4997789;28;20834;-70
2022/11/01 05:40:41;;;;;;;23.55;4.65;;;;;;;;;;4997893;28;20060;-70
2022/11/01 05:43:06;;;;;;;27.33;4.68;;;;;;;;;;5001417;28;20319;-73
2022/11/01 05:45:32;;;;;;;22.42;4.60;;;;;;;;;;5000416;28;20109;-70
2022/11/01 05:48:02;;;;;;;26.40;5.45;;;;;;;;;;5005074;28;20033;-73
2022/11/01 05:50:27;;;;;;;32.28;5.68;;;;;;;;;;4999882;28;20095;-72
2022/11/01 05:52:52;;;;;;;25.98;4.43;;;;;;;;;;5001076;28;20058;-70
2022/11/01 05:55:18;;;;;;;21.55;4.57;;;;;;;;;;5000074;28;20071;-72
2022/11/01 05:57:43;;;;;;;26.55;4.43;;;;;;;;;;5001591;28;20076;-70
2022/11/01 06:00:09;;;;;;;26.52;5.38;;;;;;;;;;5002263;28;20966;-73
2022/11/01 06:02:35;;;;;;;35.22;5.55;;;;;;;;;;5000805;28;20041;-71
2022/11/01 06:05:00;;;;;;;25.15;4.82;;;;;;;;;;5000220;28;20040;-71
2022/11/01 06:07:26;;;;;;;21.17;3.85;;;;;;;;;;5000679;28;20045;-70
2022/11/01 06:09:51;;;;;;;27.83;5.55;;;;;;;;;;4998280;28;20041;-69
2022/11/01 06:12:21;;;;;;;25.17;4.60;;;;;;;;;;5001257;28;20127;-70
2022/11/01 06:14:48;;;;;;;28.58;6.05;;;;;;;;;;5000435;28;20032;-69
2022/11/01 06:17:14;;;;;;;30.73;5.10;;;;;;;;;;4999095;28;20037;-70
2022/11/01 06:19:39;;;;;;;36.53;6.78;;;;;;;;;;5001479;28;20045;-72
2022/11/01 06:22:05;;;;;;;33.53;5.88;;;;;;;;;;5003683;28;20033;-72
2022/11/01 06:24:33;;;;;;;35.17;6.47;;;;;;;;;;4998611;28;20030;-71
2022/11/01 06:26:58;;;;;;;30.75;6.30;;;;;;;;;;4982841;28;20025;-69
2022/11/01 06:29:26;;;;;;;33.03;5.13;;;;;;;;;;4997645;28;20641;-73
2022/11/01 06:31:52;;;;;;;26.80;5.38;;;;;;;;;;5007245;28;20481;-71
2022/11/01 06:34:17;;;;;;;35.33;6.68;;;;;;;;;;4995432;28;20037;-71
2022/11/01 06:36:42;;;;;;;36.83;7.05;;;;;;;;;;4975994;28;20369;-69
2022/11/01 06:39:10;;;;;;;41.60;7.88;;;;;;;;;;4993104;28;20049;-70
2022/11/01 06:41:36;;;;;;;42.28;8.68;;;;;;;;;;4995940;28;20064;-68
2022/11/01 06:44:01;;;;;;;28.38;5.72;;;;;;;;;;4987703;28;20033;-72
2022/11/01 06:46:26;;;;;;;33.83;6.00;;;;;;;;;;4997624;28;20508;-70
2022/11/01 06:48:52;;;;;;;35.83;6.05;;;;;;;;;;4994124;28;20041;-69
2022/11/01 06:51:18;;;;;;;29.75;6.13;;;;;;;;;;4999047;28;20078;-73
2022/11/01 06:53:44;;;;;;;34.47;6.28;;;;;;;;;;4997956;28;20047;-72
2022/11/01 06:56:09;;;;;;;37.03;6.68;;;;;;;;;;4998562;28;20037;-71
2022/11/01 06:58:36;;;;;;;44.88;8.30;;;;;;;;;;4986268;28;20052;-72
2022/11/01 07:01:05;;;;;;;30.58;5.75;;;;;;;;;;4996449;28;20053;-69
2022/11/01 07:03:31;;;;;;;38.80;5.95;;;;;;;;;;4996711;28;20037;-71
2022/11/01 07:05:58;;;;;;;39.78;6.82;;;;;;;;;;4995914;28;20178;-70
2022/11/01 07:08:24;;;;;;;38.03;7.28;;;;;;;;;;4999062;28;20671;-70
2022/11/01 07:10:49;;;;;;;32.25;6.57;;;;;;;;;;4999614;28;20033;-68
2022/11/01 07:13:14;;;;;;;35.28;6.93;;;;;;;;;;4998250;28;20496;-71
2022/11/01 07:15:40;;;;;;;34.67;7.30;;;;;;;;;;4998377;28;20119;-71
2022/11/01 07:18:07;;;;;;;33.95;6.00;;;;;;;;;;4992336;28;20037;-70
2022/11/01 07:20:39;;;;;;;32.42;7.13;;;;;;;;;;5008043;28;20033;-69
2022/11/01 07:23:05;;;;;;;34.97;5.35;;;;;;;;;;4997715;28;20033;-71
2022/11/01 07:25:31;;;;;;;35.88;5.75;;;;;;;;;;4999154;28;20063;-69
2022/11/01 07:27:57;;;;;;;39.78;5.57;;;;;;;;;;4996180;28;20033;-69
2022/11/01 07:30:22;;;;;;;44.58;6.00;;;;;;;;;;5001860;28;20037;-70
2022/11/01 07:32:53;;;;;;;43.08;6.03;;;;;;;;;;4998623;28;20029;-71
2022/11/01 07:35:22;;;;;;;44.15;7.18;;;;;;;;;;4998761;28;20122;-72
2022/11/01 07:37:47;;;;;;;40.47;6.55;;;;;;;;;;4998076;28;20052;-71
2022/11/01 07:40:13;;;;;;;32.05;5.82;;;;;;;;;;4999861;28;20029;-70
2022/11/01 07:42:44;;;;;;;47.92;6.63;;;;;;;;;;4998943;28;20041;-70
2022/11/01 07:45:10;;;;;;;37.47;5.85;;;;;;;;;;4999377;28;20109;-72
2022/11/01 07:47:36;;;;;;;41.92;6.78;;;;;;;;;;4999773;28;20913;-70
2022/11/01 07:50:04;;;;;;;39.10;6.72;;;;;;;;;;4998002;28;20029;-74
2022/11/01 07:52:30;;;;;;;46.47;6.90;;;;;;;;;;4998108;28;20115;-70
2022/11/01 07:54:55;;;;;;;43.60;7.38;;;;;;;;;;5002466;28;20076;-70
2022/11/01 07:57:21;;;;;;;42.53;7.20;;;;;;;;;;4997996;28;20545;-72
2022/11/01 07:59:46;;;;;;;46.08;6.85;;;;;;;;;;4998232;28;20053;-70
2022/11/01 08:02:14;;;;;;;46.03;7.45;;;;;;;;;;4997201;28;20827;-70
2022/11/01 08:04:39;;;;;;;43.00;6.80;;;;;;;;;;4994240;28;20035;-69
2022/11/01 08:07:04;;;;;;;40.17;7.25;;;;;;;;;;4998688;28;20629;-72
2022/11/01 08:09:33;;;;;;;37.28;7.00;;;;;;;;;;4996373;28;20444;-70
2022/11/01 08:11:58;;;;;;;34.45;5.68;;;;;;;;;;5010597;28;20221;-71
2022/11/01 08:14:24;;;;;;;32.10;5.53;;;;;;;;;;4996508;28;20037;-71
2022/11/01 08:16:54;;;;;;;42.25;6.85;;;;;;;;;;4997293;28;20643;-70
2022/11/01 08:19:20;;;;;;;34.47;5.38;;;;;;;;;;4995059;28;20251;-70
2022/11/01 08:21:45;;;;;;;38.22;6.25;;;;;;;;;;4999298;28;20306;-72
2022/11/01 08:24:14;;;;;;;32.55;5.28;;;;;;;;;;4992894;28;20051;-70
2022/11/01 08:26:40;;;;;;;48.17;7.18;;;;;;;;;;5001525;28;20238;-69
2022/11/01 08:29:05;;;;;;;38.10;5.07;;;;;;;;;;4988199;28;21901;-69
2022/11/01 08:31:30;;;;;;;37.85;6.70;;;;;;;;;;5000566;28;20036;-72
2022/11/01 08:33:56;;;;;;;45.65;7.05;;;;;;;;;;4995959;28;20609;-68
2022/11/01 08:36:21;;;;;;;40.85;5.70;;;;;;;;;;4985064;28;20048;-68
2022/11/01 08:38:49;;;;;;;38.55;5.70;;;;;;;;;;4994667;28;20534;-70
2022/11/01 08:41:17;;;;;;;37.83;6.13;;;;;;;;;;4995446;28;20449;-71
2022/11/01 08:43:42;;;;;;;34.17;6.78;;;;;;;;;;4998837;28;20037;-70
2022/11/01 08:46:09;;;;;;;36.90;5.88;;;;;;;;;;4996249;28;20321;-70
2022/11/01 08:48:34;;;;;;;38.03;6.22;;;;;;;;;;4994316;28;20286;-67
2022/11/01 08:51:04;;;;;;;32.65;5.63;;;;;;;;;;4992641;28;20130;-71
2022/11/01 08:53:32;;;;;;;34.85;6.85;;;;;;;;;;4995892;28;20131;-70
2022/11/01 08:55:57;;;;;;;33.35;5.38;;;;;;;;;;4994156;28;20134;-71
2022/11/01 08:58:23;;;;;;;28.70;5.05;;;;;;;;;;4995392;28;20874;-70
2022/11/01 09:00:51;;;;;;;32.25;5.05;;;;;;;;;;4984429;28;20050;-70
2022/11/01 09:03:16;;;;;;;42.63;5.65;;;;;;;;;;4995515;28;20561;-69
2022/11/01 09:05:42;;;;;;;39.92;5.93;;;;;;;;;;4995836;28;21190;-72
2022/11/01 09:08:09;;;;;;;37.97;7.25;;;;;;;;;;4996284;28;20040;-69
2022/11/01 09:10:36;;;;;;;32.97;5.88;;;;;;;;;;4998640;28;20061;-69
2022/11/01 09:13:02;;;;;;;35.75;5.13;;;;;;;;;;4993563;28;20037;-69
2022/11/01 09:15:29;;;;;;;35.90;5.32;;;;;;;;;;4977160;28;20041;-70
2022/11/01 09:17:55;;;;;;;35.85;5.80;;;;;;;;;;4997354;28;20356;-68
2022/11/01 09:20:20;;;;;;;29.95;5.00;;;;;;;;;;5002228;28;20814;-72
2022/11/01 09:22:50;;;;;;;35.10;6.20;;;;;;;;;;5002864;28;20149;-67
2022/11/01 09:25:15;;;;;;;27.42;6.10;;;;;;;;;;5002766;28;21533;-71
2022/11/01 09:27:43;;;;;;;39.85;5.07;;;;;;;;;;5002482;28;20107;-69
2022/11/01 09:30:09;;;;;;;34.65;5.70;;;;;;;;;;5000834;28;20866;-68
2022/11/01 09:32:34;;;;;;;31.65;5.93;;;;;;;;;;5002033;28;20093;-69
2022/11/01 09:34:59;;;;;;;31.58;5.22;;;;;;;;;;5000195;28;20801;-72
2022/11/01 09:37:25;;;;;;;32.45;5.53;;;;;;;;;;5004327;28;20037;-70
2022/11/01 09:39:50;;;;;;;33.65;4.55;;;;;;;;;;5002375;28;20048;-68
2022/11/01 09:42:21;;;;;;;29.48;4.68;;;;;;;;;;4998489;28;20030;-68
2022/11/01 09:44:50;;;;;;;40.53;7.10;;;;;;;;;;5001130;28;20888;-69
2022/11/01 09:47:18;;;;;;;38.42;5.70;;;;;;;;;;4998327;28;20040;-66
2022/11/01 09:49:46;;;;;;;26.55;5.68;;;;;;;;;;5000688;28;20030;-69
2022/11/01 09:52:22;;;;;;;34.38;5.43;;;;;;;;;;4997875;28;20212;-68
2022/11/01 09:54:50;;;;;;;35.25;5.90;;;;;;;;;;5001346;28;20508;-67
2022/11/01 09:57:22;;;;;;;37.78;5.70;;;;;;;;;;4996739;28;20033;-68
2022/11/01 09:59:47;;;;;;;;;;;;;;;;;;4999832;28;20034;-65
2022/11/01 10:02:17;;;;;;;40.87;5.33;;;;;;;;;;4997853;28;19960;-68
2022/11/01 10:04:45;;;;;;;40.05;5.80;;;;;;;;;;4985735;28;20323;-67
2022/11/01 10:07:18;;;;;;;37.50;6.10;;;;;;;;;;5000267;28;20503;-67
2022/11/01 10:09:43;;;;;;;35.08;5.72;;;;;;;;;;4998997;28;20037;-71
2022/11/01 10:12:15;;;;;;;31.95;6.05;;;;;;;;;;5000496;28;20029;-69
2022/11/01 10:14:53;;;;;;;30.63;5.43;;;;;;;;;;4999499;28;22267;-69
2022/11/01 10:17:48;;;;;;;30.42;5.90;;;;;;;;;;4999526;28;20026;-70
2022/11/01 10:20:15;;;;;;;28.00;5.15;;;;;;;;;;4988153;28;20090;-70
2022/11/01 10:22:42;;;;;;;28.50;5.90;;;;;;;;;;5000563;28;20226;-70
2022/11/01 10:25:19;;;;;;;40.72;6.22;;;;;;;;;;4998261;28;20725;-70
2022/11/01 10:27:58;;;;;;;34.55;5.07;;;;;;;;;;5001611;28;20033;-69
2022/11/01 10:30:24;;;;;;;38.55;5.55;;;;;;;;;;5001478;28;21009;-71
2022/11/01 10:33:01;;;;;;;35.63;7.00;;;;;;;;;;4998793;28;20028;-67
2022/11/01 10:35:34;;;;;;;44.50;5.80;;;;;;;;;;5000307;28;20033;-69
2022/11/01 10:38:18;;;;;;;24.83;5.32;;;;;;;;;;4999833;28;20057;-68
2022/11/01 10:40:51;;;;;;;33.58;5.47;;;;;;;;;;4999768;28;20257;-69
2022/11/01 10:43:19;;;;;;;28.08;6.00;;;;;;;;;;4999836;28;20044;-69
2022/11/01 10:45:48;;;;;;;31.25;4.60;;;;;;;;;;5000842;28;20034;-69
2022/11/01 10:48:37;;;;;;;28.80;4.60;;;;;;;;;;5000298;28;21225;-70
2022/11/01 10:51:03;;;;;;;38.85;5.68;;;;;;;;;;4997847;28;20041;-68
2022/11/01 10:53:31;;;;;;;24.58;4.03;;;;;;;;;;5001635;28;20048;-66
2022/11/01 10:56:02;;;;;;;30.27;4.25;;;;;;;;;;5013813;28;20464;-72
2022/11/01 10:58:35;;;;;;;27.98;6.40;;;;;;;;;;4997817;28;20044;-70
2022/11/01 11:01:07;;;;;;;33.45;5.13;;;;;;;;;;4999434;28;20222;-70
2022/11/01 11:03:33;;;;;;;36.35;4.85;;;;;;;;;;4986873;28;20036;-70
2022/11/01 11:06:03;;;;;;;41.35;5.72;;;;;;;;;;4998247;28;20079;-70
2022/11/01 11:08:29;;;;;;;34.13;5.40;;;;;;;;;;4999609;28;20043;-70
2022/11/01 11:10:56;;;;;;;27.50;4.10;;;;;;;;;;4999670;28;20098;-70
2022/11/01 11:13:23;;;;;;;27.02;5.30;;;;;;;;;;4999579;28;20062;-70
2022/11/01 11:16:00;;;;;;;36.70;5.03;;;;;;;;;;4998344;28;20033;-68
2022/11/01 11:18:37;;;;;;;27.30;5.80;;;;;;;;;;4998511;28;20044;-68
2022/11/01 11:21:12;;;;;;;31.58;5.10;;;;;;;;;;4996150;28;20056;-68
2022/11/01 11:23:44;;;;;;;27.98;5.55;;;;;;;;;;5001461;28;20083;-68
2022/11/01 11:26:12;;;;;;;32.90;6.35;;;;;;;;;;5000013;28;20041;-70
2022/11/01 11:28:42;;;;;;;35.22;5.85;;;;;;;;;;4995184;28;20916;-71
2022/11/01 11:31:12;;;;;;;27.35;4.80;;;;;;;;;;4999950;28;20151;-71
2022/11/01 11:33:38;;;;;;;24.60;4.40;;;;;;;;;;4998698;28;20855;-69
2022/11/01 11:36:04;;;;;;;28.35;3.78;;;;;;;;;;5000982;28;20096;-71
2022/11/01 11:38:50;;;;;;;26.65;4.50;;;;;;;;;;5000086;28;20041;-70
2022/11/01 11:41:28;;;;;;;36.40;5.15;;;;;;;;;;4982806;28;20047;-72
2022/11/01 11:43:54;;;;;;;32.45;4.85;;;;;;;;;;4984169;28;20119;-68
2022/11/01 11:46:25;;;;;;;26.95;6.00;;;;;;;;;;4983429;28;20120;-66
2022/11/01 11:48:55;;;;;;;27.30;4.05;;;;;;;;;;4994043;28;20260;-70
2022/11/01 11:51:21;;;;;;;26.75;3.97;;;;;;;;;;4976399;28;20095;-67
2022/11/01 11:54:05;;;;;;;25.80;4.60;;;;;;;;;;4978589;28;20485;-70
2022/11/01 11:56:31;;;;;;;30.33;5.00;;;;;;;;;;4977117;28;20034;-71
2022/11/01 11:58:59;;;;;;;26.33;5.32;;;;;;;;;;4980305;28;20045;-70
2022/11/01 12:01:27;;;;;;;30.88;5.35;;;;;;;;;;4979122;28;20049;-67
2022/11/01 12:03:55;;;;;;;26.05;5.32;;;;;;;;;;4984356;28;20057;-69
2022/11/01 12:06:30;;;;;;;29.30;5.97;;;;;;;;;;4982127;28;20033;-70
2022/11/01 12:08:56;;;;;;;26.20;5.30;;;;;;;;;;4980873;28;20561;-69
2022/11/01 12:11:23;;;;;;;26.25;5.50;;;;;;;;;;4977444;28;20033;-69
2022/11/01 12:14:04;;;;;;;20.30;5.20;;;;;;;;;;4981461;28;20068;-69
2022/11/01 12:16:38;;;;;;;25.02;3.88;;;;;;;;;;4997069;28;20083;-66
2022/11/01 12:19:20;;;;;;;24.02;4.38;;;;;;;;;;4982544;28;20454;-69
2022/11/01 12:21:46;;;;;;;28.35;4.68;;;;;;;;;;4981151;28;20114;-70
2022/11/01 12:24:11;;;;;;;28.27;4.28;;;;;;;;;;4979446;28;20251;-69
2022/11/01 12:26:37;;;;;;;26.40;3.47;;;;;;;;;;4980072;28;21850;-68
2022/11/01 12:29:17;;;;;;;25.70;4.55;;;;;;;;;;4981227;28;20048;-67
2022/11/01 12:31:43;;;;;;;30.50;4.20;;;;;;;;;;4981347;28;20029;-69
2022/11/01 12:34:18;;;;;;;30.38;3.92;;;;;;;;;;4959405;28;20099;-70
2022/11/01 12:36:49;;;;;;;23.52;3.28;;;;;;;;;;4981353;28;20053;-69
2022/11/01 12:39:14;;;;;;;27.70;5.20;;;;;;;;;;4980501;28;20877;-71
2022/11/01 12:41:40;;;;;;;20.75;3.40;;;;;;;;;;4975885;28;20029;-71
2022/11/01 12:44:28;;;;;;;21.02;4.10;;;;;;;;;;4980135;28;20572;-66
2022/11/01 12:46:56;;;;;;;19.13;3.65;;;;;;;;;;4977562;28;20711;-66
2022/11/01 12:49:40;;;;;;;26.73;5.18;;;;;;;;;;4977537;28;20846;-66
2022/11/01 12:52:13;;;;;;;25.90;4.05;;;;;;;;;;4977076;28;20065;-69
2022/11/01 12:54:41;;;;;;;23.83;4.60;;;;;;;;;;4976342;28;20528;-67
2022/11/01 12:57:12;;;;;;;25.75;5.88;;;;;;;;;;4978047;28;20184;-68
2022/11/01 12:59:37;;;;;;;23.83;4.78;;;;;;;;;;4981213;28;20559;-67
2022/11/01 13:02:14;;;;;;;28.85;4.22;;;;;;;;;;4978864;28;20625;-67
2022/11/01 13:04:45;;;;;;;23.50;4.80;;;;;;;;;;4980176;28;20029;-69
2022/11/01 13:07:20;;;;;;;22.00;5.28;;;;;;;;;;4978476;28;20148;-67
2022/11/01 13:10:06;;;;;;;21.27;5.10;;;;;;;;;;4979556;28;20037;-71
2022/11/01 13:12:43;;;;;;;26.88;5.88;;;;;;;;;;4973583;28;20530;-66
2022/11/01 13:15:32;;;;;;;20.70;4.80;;;;;;;;;;4978917;28;20164;-69
2022/11/01 13:18:07;;;;;;;23.42;5.03;;;;;;;;;;4978214;28;20160;-68
2022/11/01 13:20:32;;;;;;;23.27;5.97;;;;;;;;;;4977925;28;20387;-69
2022/11/01 13:23:03;;;;;;;21.45;3.42;;;;;;;;;;4975403;28;20226;-72
2022/11/01 13:25:28;;;;;;;30.27;4.43;;;;;;;;;;4980183;28;20061;-69
2022/11/01 13:28:23;;;;;;;21.80;4.43;;;;;;;;;;4979043;28;20037;-69
2022/11/01 13:30:56;;;;;;;36.05;5.85;;;;;;;;;;4971248;28;20287;-68
2022/11/01 13:33:29;;;;;;;29.23;4.00;;;;;;;;;;4978920;28;20770;-69
2022/11/01 13:36:03;;;;;;;28.73;4.53;;;;;;;;;;4978856;28;20034;-71
2022/11/01 13:38:33;;;;;;;22.13;5.50;;;;;;;;;;4970151;28;20053;-66
2022/11/01 13:41:18;;;;;;;19.10;4.50;;;;;;;;;;4975039;28;20125;-69
2022/11/01 13:43:47;;;;;;;28.17;5.72;;;;;;;;;;4979065;28;20184;-69
2022/11/01 13:46:18;;;;;;;35.72;6.28;;;;;;;;;;4979770;28;20045;-69
2022/11/01 13:48:44;;;;;;;31.38;5.65;;;;;;;;;;4980371;28;20043;-70
2022/11/01 13:51:10;;;;;;;33.00;5.78;;;;;;;;;;4975707;28;20029;-69
2022/11/01 13:53:39;;;;;;;22.42;3.78;;;;;;;;;;4977803;28;20033;-69
2022/11/01 13:56:27;;;;;;;19.38;4.75;;;;;;;;;;4976545;28;20455;-70
2022/11/01 13:58:52;;;;;;;24.63;4.00;;;;;;;;;;4973512;28;20502;-74
2022/11/01 14:01:34;;;;;;;23.83;4.28;;;;;;;;;;4977323;28;20042;-70
2022/11/01 14:04:15;;;;;;;20.88;5.18;;;;;;;;;;4976792;28;20436;-70
2022/11/01 14:06:41;;;;;;;24.50;4.47;;;;;;;;;;4982923;28;20455;-68
2022/11/01 14:09:27;;;;;;;19.67;3.33;;;;;;;;;;4978772;28;20042;-70
2022/11/01 14:11:53;;;;;;;19.83;4.75;;;;;;;;;;4985900;28;20059;-71
2022/11/01 14:14:44;;;;;;;23.15;3.97;;;;;;;;;;4990713;28;22210;-70
2022/11/01 14:17:36;;;;;;;23.10;5.53;;;;;;;;;;4960896;28;20144;-70
2022/11/01 14:20:05;;;;;;;29.85;6.47;;;;;;;;;;4961480;28;20072;-68
2022/11/01 14:22:31;;;;;;;22.30;5.75;;;;;;;;;;4961920;28;20068;-71
2022/11/01 14:25:01;;;;;;;26.00;5.20;;;;;;;;;;4962582;28;20045;-70
2022/11/01 14:27:27;;;;;;;20.77;4.85;;;;;;;;;;4980306;28;20029;-70
2022/11/01 14:29:53;;;;;;;30.40;4.68;;;;;;;;;;4983576;28;20123;-71
2022/11/01 14:32:20;;;;;;;30.40;6.30;;;;;;;;;;4995540;28;20559;-71
2022/11/01 14:34:54;;;;;;;22.25;5.05;;;;;;;;;;4982393;28;20034;-70
2022/11/01 14:37:21;;;;;;;21.55;3.88;;;;;;;;;;4995359;28;20037;-72
2022/11/01 14:39:50;;;;;;;24.92;4.22;;;;;;;;;;4980828;28;20503;-70
2022/11/01 14:42:19;;;;;;;24.88;5.95;;;;;;;;;;4981912;28;20033;-71
2022/11/01 14:44:46;;;;;;;32.13;5.20;;;;;;;;;;4982258;28;20033;-72
2022/11/01 14:47:26;;;;;;;20.10;4.60;;;;;;;;;;4980884;28;20056;-69
2022/11/01 14:49:55;;;;;;;16.85;3.35;;;;;;;;;;4982611;28;20486;-69
2022/11/01 14:52:39;;;;;;;12.32;3.40;;;;;;;;;;4982562;28;20122;-67